createdAt,value
2019-05-15T00:00:49.203Z,75.84
2019-05-15T00:03:19.790Z,76.03
2019-05-15T00:05:49.499Z,76.05
2019-05-15T00:08:18.654Z,76.07
2019-05-15T00:10:48.432Z,76.21
2019-05-15T00:13:18.455Z,76.20
2019-05-15T00:15:48.136Z,76.19
2019-05-15T00:18:18.542Z,76.45
2019-05-15T00:20:49.660Z,76.36
2019-05-15T00:23:18.354Z,76.29
2019-05-15T00:25:48.773Z,76.45
2019-05-15T00:28:18.579Z,76.54
2019-05-15T00:30:48.098Z,76.36
2019-05-15T00:33:19.143Z,76.51
2019-05-15T00:35:48.600Z,76.46
2019-05-15T00:38:18.629Z,76.62
2019-05-15T00:40:49.566Z,76.72
2019-05-15T00:43:18.471Z,76.60
2019-05-15T00:45:48.840Z,76.52
2019-05-15T00:48:18.308Z,76.58
2019-05-15T00:50:48.567Z,76.58
2019-05-15T00:53:19.633Z,76.59
2019-05-15T00:55:48.574Z,76.74
2019-05-15T00:58:19.942Z,76.74
2019-05-15T01:00:48.757Z,76.83
2019-05-15T01:03:18.230Z,77.03
2019-05-15T01:05:48.018Z,76.97
2019-05-15T01:08:19.118Z,76.97
2019-05-15T01:10:48.878Z,76.88
2019-05-15T01:13:19.007Z,77.12
2019-05-15T01:15:49.022Z,77.03
2019-05-15T01:18:18.667Z,76.99
2019-05-15T01:20:49.387Z,76.98
2019-05-15T01:23:18.708Z,76.97
2019-05-15T01:25:48.215Z,76.95
2019-05-15T01:28:18.380Z,77.15
2019-05-15T01:30:48.694Z,76.89
2019-05-15T01:33:18.983Z,76.77
2019-05-15T01:35:48.738Z,76.94
2019-05-15T01:38:18.744Z,76.81
2019-05-15T01:40:48.473Z,76.68
2019-05-15T01:43:18.677Z,76.79
2019-05-15T01:45:48.329Z,76.65
2019-05-15T01:48:18.919Z,76.87
2019-05-15T01:50:49.322Z,76.85
2019-05-15T01:53:18.802Z,76.73
2019-05-15T01:55:48.368Z,76.61
2019-05-15T01:58:18.608Z,76.88
2019-05-15T02:00:48.433Z,76.93
2019-05-15T02:03:18.426Z,77.05
2019-05-15T02:05:48.037Z,76.90
2019-05-15T02:08:19.066Z,76.99
2019-05-15T02:10:49.377Z,76.82
2019-05-15T02:13:18.695Z,76.71
2019-05-15T02:15:48.260Z,76.77
2019-05-15T02:18:19.141Z,76.97
2019-05-15T02:20:49.357Z,76.78
2019-05-15T02:23:18.857Z,76.55
2019-05-15T02:25:48.216Z,76.58
2019-05-15T02:28:18.378Z,76.56
2019-05-15T02:30:50.435Z,76.74
2019-05-15T02:33:18.923Z,76.96
2019-05-15T02:35:50.182Z,77.17
2019-05-15T02:38:19.915Z,76.85
2019-05-15T02:40:49.519Z,76.66
2019-05-15T02:43:19.207Z,76.82
2019-05-15T02:45:50.978Z,76.51
2019-05-15T02:48:19.907Z,76.67
2019-05-15T02:50:50.153Z,76.70
2019-05-15T02:53:19.240Z,76.83
2019-05-15T02:55:49.571Z,76.53
2019-05-15T02:58:21.283Z,76.68
2019-05-15T03:00:53.131Z,77.04
2019-05-15T03:03:20.563Z,76.87
2019-05-15T03:05:49.972Z,76.68
2019-05-15T03:08:19.757Z,76.73
2019-05-15T03:10:49.694Z,76.51
2019-05-15T03:13:19.117Z,76.60
2019-05-15T03:15:48.943Z,76.77
2019-05-15T03:18:19.474Z,76.46
2019-05-15T03:20:50.141Z,76.53
2019-05-15T03:23:19.806Z,76.47
2019-05-15T03:25:49.186Z,76.56
2019-05-15T03:28:19.123Z,76.59
2019-05-15T03:31:14.587Z,76.66
2019-05-15T03:33:27.104Z,76.71
2019-05-15T03:35:54.137Z,76.47
2019-05-15T03:38:19.674Z,76.44
2019-05-15T03:40:49.757Z,76.77
2019-05-15T03:43:18.883Z,76.69
2019-05-15T03:45:49.330Z,76.78
2019-05-15T03:48:19.603Z,76.93
2019-05-15T03:50:49.038Z,76.87
2019-05-15T03:53:19.337Z,76.95
2019-05-15T03:55:49.057Z,77.00
2019-05-15T03:58:21.502Z,76.80
2019-05-15T04:00:49.752Z,76.71
2019-05-15T04:03:20.181Z,76.64
2019-05-15T04:05:49.590Z,76.54
2019-05-15T04:08:19.481Z,76.74
2019-05-15T04:10:48.952Z,76.68
2019-05-15T04:13:19.526Z,76.60
2019-05-15T04:15:50.098Z,76.89
2019-05-15T04:18:19.981Z,76.48
2019-05-15T04:20:49.477Z,76.65
2019-05-15T04:23:21.271Z,76.65
2019-05-15T04:25:52.387Z,76.99
2019-05-15T04:28:22.033Z,76.81
2019-05-15T04:30:50.869Z,76.71
2019-05-15T04:33:19.999Z,76.56
2019-05-15T04:35:49.804Z,76.56
2019-05-15T04:38:19.498Z,76.80
2019-05-15T04:40:50.080Z,76.71
2019-05-15T04:43:19.514Z,76.70
2019-05-15T04:45:49.806Z,76.67
2019-05-15T04:48:19.997Z,76.63
2019-05-15T04:50:49.842Z,76.72
2019-05-15T04:53:19.380Z,76.73
2019-05-15T04:55:49.173Z,76.74
2019-05-15T04:58:20.769Z,77.00
2019-05-15T05:00:50.561Z,76.76
2019-05-15T05:03:20.591Z,76.92
2019-05-15T05:05:50.422Z,77.01
2019-05-15T05:08:20.378Z,76.89
2019-05-15T05:10:49.634Z,77.05
2019-05-15T05:13:19.875Z,76.97
2019-05-15T05:15:50.082Z,77.17
2019-05-15T05:18:19.757Z,77.31
2019-05-15T05:20:48.882Z,77.09
2019-05-15T05:23:19.244Z,77.08
2019-05-15T05:25:49.103Z,77.16
2019-05-15T05:28:18.495Z,76.98
2019-05-15T05:30:48.358Z,77.19
2019-05-15T05:33:18.407Z,77.01
2019-05-15T05:35:48.511Z,76.95
2019-05-15T05:38:19.135Z,76.87
2019-05-15T05:40:49.817Z,76.98
2019-05-15T05:43:19.135Z,77.08
2019-05-15T05:45:49.285Z,76.83
2019-05-15T05:48:19.006Z,76.84
2019-05-15T05:50:49.649Z,76.84
2019-05-15T05:53:20.809Z,77.14
2019-05-15T05:55:52.595Z,77.10
2019-05-15T05:58:19.898Z,76.83
2019-05-15T06:00:49.465Z,77.07
2019-05-15T06:03:19.667Z,76.86
2019-05-15T06:05:49.547Z,76.77
2019-05-15T06:08:19.847Z,76.72
2019-05-15T06:10:49.577Z,76.78
2019-05-15T06:13:18.915Z,77.01
2019-05-15T06:15:48.817Z,76.97
2019-05-15T06:18:19.580Z,76.75
2019-05-15T06:20:49.791Z,76.74
2019-05-15T06:23:23.600Z,76.74
2019-05-15T06:25:49.951Z,76.72
2019-05-15T06:28:20.096Z,76.82
2019-05-15T06:30:49.209Z,77.03
2019-05-15T06:33:18.776Z,77.06
2019-05-15T06:35:48.883Z,77.18
2019-05-15T06:38:19.349Z,77.02
2019-05-15T06:40:49.126Z,77.03
2019-05-15T06:43:19.091Z,76.81
2019-05-15T06:45:49.068Z,77.11
2019-05-15T06:48:18.563Z,77.25
2019-05-15T06:50:48.904Z,77.00
2019-05-15T06:53:19.352Z,77.12
2019-05-15T06:55:48.972Z,77.27
2019-05-15T06:58:19.180Z,77.00
2019-05-15T07:00:49.241Z,77.14
2019-05-15T07:03:25.217Z,77.36
2019-05-15T07:05:50.712Z,77.19
2019-05-15T07:08:19.662Z,77.21
2019-05-15T07:10:48.886Z,77.39
2019-05-15T07:13:18.444Z,77.36
2019-05-15T07:15:49.397Z,77.35
2019-05-15T07:18:19.923Z,76.93
2019-05-15T07:20:49.213Z,77.05
2019-05-15T07:23:18.920Z,77.06
2019-05-15T07:25:49.715Z,77.30
2019-05-15T07:28:18.543Z,77.34
2019-05-15T07:30:49.329Z,77.34
2019-05-15T07:33:27.957Z,77.16
2019-05-15T07:35:49.308Z,77.16
2019-05-15T07:38:18.601Z,77.43
2019-05-15T07:40:55.448Z,77.50
2019-05-15T07:43:18.296Z,77.19
2019-05-15T07:45:53.756Z,77.39
2019-05-15T07:48:18.907Z,77.34
2019-05-15T07:50:49.840Z,77.29
2019-05-15T07:53:19.936Z,77.21
2019-05-15T07:55:50.045Z,77.13
2019-05-15T07:58:21.036Z,77.17
2019-05-15T08:00:49.937Z,77.27
2019-05-15T08:03:18.822Z,77.34
2019-05-15T08:05:58.723Z,77.28
2019-05-15T08:08:18.692Z,77.31
2019-05-15T08:10:48.875Z,77.12
2019-05-15T08:13:18.616Z,76.91
2019-05-15T08:15:48.659Z,77.07
2019-05-15T08:18:18.385Z,77.01
2019-05-15T08:20:49.098Z,77.05
2019-05-15T08:25:48.883Z,76.90
2019-05-15T08:26:05.671Z,76.92
2019-05-15T08:28:19.073Z,76.85
2019-05-15T08:30:49.449Z,76.56
2019-05-15T08:33:18.975Z,76.65
2019-05-15T08:35:51.584Z,76.91
2019-05-15T08:38:18.614Z,76.62
2019-05-15T08:40:49.038Z,76.26
2019-05-15T08:43:18.727Z,76.37
2019-05-15T08:45:49.717Z,76.35
2019-05-15T08:48:18.626Z,76.19
2019-05-15T08:50:48.802Z,76.22
2019-05-15T08:53:19.486Z,76.41
2019-05-15T08:55:48.924Z,76.22
2019-05-15T08:58:20.405Z,76.20
2019-05-15T09:00:52.227Z,76.23
2019-05-15T09:03:18.707Z,76.76
2019-05-15T09:05:48.385Z,76.50
2019-05-15T09:08:19.217Z,76.57
2019-05-15T09:10:50.189Z,76.74
2019-05-15T09:13:19.105Z,76.44
2019-05-15T09:15:48.575Z,76.50
2019-05-15T09:18:20.244Z,75.99
2019-05-15T09:20:49.239Z,76.16
2019-05-15T09:23:19.379Z,76.32
2019-05-15T09:25:49.561Z,75.82
2019-05-15T09:28:19.712Z,76.36
2019-05-15T09:30:49.289Z,76.26
2019-05-15T09:33:19.965Z,76.41
2019-05-15T09:35:49.124Z,76.33
2019-05-15T09:38:18.686Z,76.81
2019-05-15T09:40:50.337Z,76.66
2019-05-15T09:43:18.477Z,76.70
2019-05-15T09:45:49.244Z,76.29
2019-05-15T09:48:19.695Z,76.34
2019-05-15T09:50:49.481Z,76.39
2019-05-15T09:53:19.151Z,76.44
2019-05-15T09:55:49.341Z,76.34
2019-05-15T09:58:20.146Z,76.22
2019-05-15T10:00:51.662Z,76.48
2019-05-15T10:03:20.377Z,76.81
2019-05-15T10:05:49.266Z,76.80
2019-05-15T10:08:20.934Z,76.98
2019-05-15T10:10:48.887Z,76.93
2019-05-15T10:13:18.707Z,77.15
2019-05-15T10:15:50.931Z,77.45
2019-05-15T10:18:19.204Z,77.69
2019-05-15T10:20:48.152Z,77.64
2019-05-15T10:23:19.670Z,77.41
2019-05-15T10:25:48.476Z,77.38
2019-05-15T10:28:19.088Z,77.98
2019-05-15T10:30:49.663Z,77.72
2019-05-15T10:33:19.655Z,77.88
2019-05-15T10:35:49.185Z,77.49
2019-05-15T10:38:19.281Z,77.69
2019-05-15T10:40:59.901Z,77.23
2019-05-15T10:43:20.702Z,77.19
2019-05-15T10:45:50.248Z,77.15
2019-05-15T10:48:19.402Z,77.40
2019-05-15T10:50:48.126Z,77.23
2019-05-15T10:53:18.686Z,77.29
2019-05-15T10:55:49.485Z,77.34
2019-05-15T10:58:21.872Z,77.19
2019-05-15T11:00:49.574Z,77.05
2019-05-15T11:03:20.037Z,77.18
2019-05-15T11:05:49.406Z,77.38
2019-05-15T11:08:19.021Z,77.67
2019-05-15T11:10:49.519Z,77.50
2019-05-15T11:13:19.012Z,77.63
2019-05-15T11:15:49.180Z,77.94
2019-05-15T11:18:18.265Z,78.18
2019-05-15T11:20:48.597Z,77.67
2019-05-15T11:23:19.874Z,78.23
2019-05-15T11:25:48.846Z,78.29
2019-05-15T11:28:17.983Z,78.62
2019-05-15T11:30:49.074Z,78.54
2019-05-15T11:33:18.783Z,78.61
2019-05-15T11:35:58.187Z,78.77
2019-05-15T11:38:19.459Z,78.22
2019-05-15T11:40:48.468Z,78.26
2019-05-15T11:43:19.637Z,77.98
2019-05-15T11:45:48.453Z,78.23
2019-05-15T11:48:20.173Z,78.06
2019-05-15T11:50:47.854Z,78.27
2019-05-15T11:53:19.090Z,78.11
2019-05-15T11:55:48.108Z,78.09
2019-05-15T11:58:18.910Z,78.16
2019-05-15T12:00:49.139Z,78.27
2019-05-15T12:03:19.079Z,78.11
2019-05-15T12:05:48.097Z,77.85
2019-05-15T12:08:18.561Z,77.94
2019-05-15T12:10:47.330Z,78.22
2019-05-15T12:13:18.702Z,78.33
2019-05-15T12:15:48.487Z,77.83
2019-05-15T12:18:17.178Z,77.82
2019-05-15T12:20:48.318Z,78.13
2019-05-15T12:23:16.454Z,77.94
2019-05-15T12:25:45.247Z,77.64
2019-05-15T12:28:13.991Z,78.22
2019-05-15T12:30:42.731Z,77.58
2019-05-15T12:33:11.496Z,75.93
2019-05-15T12:35:40.468Z,76.15
2019-05-15T13:00:43.743Z,78.33
2019-05-15T13:03:12.475Z,78.22
2019-05-15T13:05:41.268Z,78.42
2019-05-15T13:08:10.015Z,78.75
2019-05-15T13:10:38.928Z,78.51
2019-05-15T13:13:09.635Z,78.92
2019-05-15T13:15:40.799Z,79.02
2019-05-15T13:18:13.790Z,79.13
2019-05-15T13:20:39.283Z,79.25
2019-05-15T13:23:09.121Z,79.27
2019-05-15T13:25:39.333Z,79.18
2019-05-15T13:28:09.116Z,79.17
2019-05-15T13:30:41.285Z,79.22
2019-05-15T13:33:09.758Z,79.17
2019-05-15T13:35:39.293Z,78.94
2019-05-15T13:38:09.956Z,78.92
2019-05-15T13:40:42.102Z,79.06
2019-05-15T13:43:09.054Z,79.16
2019-05-15T13:45:38.584Z,79.13
2019-05-15T13:48:08.801Z,79.07
2019-05-15T13:50:40.550Z,79.11
2019-05-15T13:53:10.438Z,79.07
2019-05-15T13:55:42.444Z,79.20
2019-05-15T13:58:09.679Z,79.41
2019-05-15T14:00:39.195Z,79.46
2019-05-15T14:03:09.219Z,79.34
2019-05-15T14:05:38.732Z,79.08
2019-05-15T14:08:07.619Z,79.09
2019-05-15T14:10:38.638Z,79.29
2019-05-15T14:13:06.857Z,79.25
2019-05-15T14:15:38.045Z,79.13
2019-05-15T14:18:08.366Z,79.21
2019-05-15T14:20:38.673Z,79.21
2019-05-15T14:23:08.734Z,79.04
2019-05-15T14:25:38.796Z,79.17
2019-05-15T14:28:08.872Z,79.27
2019-05-15T14:30:37.947Z,79.08
2019-05-15T14:33:08.482Z,78.81
2019-05-15T14:35:37.979Z,78.89
2019-05-15T14:38:10.208Z,79.03
2019-05-15T14:40:37.389Z,79.06
2019-05-15T14:43:08.908Z,79.14
2019-05-15T14:45:38.850Z,79.25
2019-05-15T14:48:08.850Z,79.48
2019-05-15T14:50:38.580Z,79.35
2019-05-15T14:53:09.570Z,79.45
2019-05-15T14:55:44.083Z,79.33
2019-05-15T14:58:08.696Z,79.32
2019-05-15T15:00:41.242Z,79.14
2019-05-15T15:03:09.718Z,78.95
2019-05-15T15:05:39.063Z,79.14
2019-05-15T15:08:18.448Z,79.21
2019-05-15T15:10:38.909Z,79.10
2019-05-15T15:13:09.266Z,78.95
2019-05-15T15:15:38.224Z,78.90
2019-05-15T15:18:08.250Z,78.92
2019-05-15T15:20:38.017Z,78.85
2019-05-15T15:23:08.504Z,78.91
2019-05-15T15:25:39.831Z,78.98
2019-05-15T15:28:08.736Z,79.30
2019-05-15T15:30:39.756Z,79.24
2019-05-15T15:33:08.791Z,79.18
2019-05-15T15:35:38.304Z,79.09
2019-05-15T15:38:12.752Z,78.86
2019-05-15T15:40:38.896Z,78.95
2019-05-15T15:43:09.103Z,79.12
2019-05-15T15:45:39.146Z,79.14
2019-05-15T15:48:08.525Z,79.32
2019-05-15T15:50:38.383Z,79.21
2019-05-15T15:53:08.831Z,79.22
2019-05-15T15:55:38.696Z,79.03
2019-05-15T15:58:08.823Z,78.99
2019-05-15T16:00:38.542Z,79.12
2019-05-15T16:03:08.454Z,79.15
2019-05-15T16:05:38.450Z,79.06
2019-05-15T16:08:08.606Z,79.04
2019-05-15T16:10:38.061Z,79.05
2019-05-15T16:13:09.192Z,79.13
2019-05-15T16:15:38.545Z,78.79
2019-05-15T16:18:08.991Z,78.69
2019-05-15T16:20:39.529Z,78.68
2019-05-15T16:23:08.744Z,78.83
2019-05-15T16:25:38.418Z,78.98
2019-05-15T16:28:08.775Z,78.88
2019-05-15T16:30:50.426Z,78.76
2019-05-15T16:33:09.409Z,78.83
2019-05-15T16:35:38.830Z,78.90
2019-05-15T16:38:09.370Z,78.87
2019-05-15T16:40:38.450Z,78.51
2019-05-15T16:43:07.420Z,78.49
2019-05-15T16:45:38.582Z,78.72
2019-05-15T16:48:09.283Z,78.96
2019-05-15T16:50:38.073Z,78.72
2019-05-15T16:53:09.198Z,78.90
2019-05-15T16:55:37.908Z,78.93
2019-05-15T16:58:09.151Z,79.03
2019-05-15T17:00:38.449Z,78.97
2019-05-15T17:03:14.299Z,78.96
2019-05-15T17:05:38.706Z,78.85
2019-05-15T17:08:09.150Z,78.76
2019-05-15T17:10:38.779Z,78.99
2019-05-15T17:13:08.786Z,78.90
2019-05-15T17:15:38.435Z,78.90
2019-05-15T17:18:09.034Z,79.02
2019-05-15T17:20:37.960Z,78.96
2019-05-15T17:23:08.592Z,78.98
2019-05-15T17:25:38.273Z,79.05
2019-05-15T17:28:09.078Z,79.42
2019-05-15T17:30:38.291Z,79.28
2019-05-15T17:33:07.158Z,79.11
2019-05-15T17:35:38.017Z,78.83
2019-05-15T17:38:06.427Z,78.76
2019-05-15T17:40:35.149Z,78.90
2019-05-15T17:43:03.935Z,78.87
2019-05-15T17:45:33.039Z,78.85
2019-05-15T17:48:01.851Z,78.78
2019-05-15T17:50:44.722Z,79.81
2019-05-15T17:53:01.077Z,78.78
2019-05-15T17:55:29.870Z,76.59
2019-05-15T17:58:01.069Z,75.21
2019-05-15T18:00:29.180Z,74.20
2019-05-15T18:02:58.229Z,73.03
2019-05-15T18:05:28.301Z,74.00
2019-05-15T18:07:58.339Z,74.98
2019-05-15T18:10:27.977Z,75.73
2019-05-15T18:12:58.397Z,76.54
2019-05-15T18:15:27.286Z,77.33
2019-05-15T18:17:58.984Z,77.60
2019-05-15T18:20:30.259Z,78.21
2019-05-15T18:22:59.412Z,78.48
2019-05-15T18:25:28.256Z,78.81
2019-05-15T18:27:59.282Z,79.33
2019-05-15T18:30:28.158Z,79.55
2019-05-15T18:32:58.766Z,79.56
2019-05-15T18:35:29.482Z,79.62
2019-05-15T18:37:59.074Z,79.87
2019-05-15T18:40:28.131Z,79.90
2019-05-15T18:42:59.270Z,79.99
2019-05-15T18:45:28.947Z,80.10
2019-05-15T18:47:58.655Z,79.93
2019-05-15T18:50:28.469Z,80.07
2019-05-15T18:52:58.458Z,80.10
2019-05-15T18:55:27.477Z,79.92
2019-05-15T18:57:58.497Z,79.94
2019-05-15T19:00:29.574Z,80.34
2019-05-15T19:02:59.536Z,80.16
2019-05-15T19:05:28.236Z,80.15
2019-05-15T19:07:57.950Z,80.01
2019-05-15T19:10:28.176Z,79.78
2019-05-15T19:12:58.158Z,79.86
2019-05-15T19:15:28.701Z,79.78
2019-05-15T19:17:58.625Z,79.90
2019-05-15T19:20:28.233Z,79.94
2019-05-15T19:22:58.939Z,80.08
2019-05-15T19:25:28.663Z,80.43
2019-05-15T19:27:57.823Z,80.23
2019-05-15T19:30:28.738Z,79.89
2019-05-15T19:32:58.516Z,79.93
2019-05-15T19:35:28.185Z,80.03
2019-05-15T19:37:58.477Z,80.20
2019-05-15T19:40:28.347Z,80.10
2019-05-15T19:42:59.092Z,80.15
2019-05-15T19:45:28.345Z,80.03
2019-05-15T19:47:58.662Z,80.16
2019-05-15T19:50:28.765Z,80.29
2019-05-15T19:52:59.203Z,80.37
2019-05-15T19:55:28.203Z,80.58
2019-05-15T19:57:58.871Z,80.60
2019-05-15T20:00:28.443Z,80.62
2019-05-15T20:02:59.315Z,80.65
2019-05-15T20:05:28.988Z,80.39
2019-05-15T20:07:58.806Z,80.36
2019-05-15T20:10:29.335Z,80.24
2019-05-15T20:12:59.459Z,80.43
2019-05-15T20:15:28.663Z,80.48
2019-05-15T20:17:57.865Z,80.57
2019-05-15T20:20:28.339Z,80.59
2019-05-15T20:22:59.912Z,80.52
2019-05-15T20:25:28.123Z,80.58
2019-05-15T20:27:56.939Z,80.55
2019-05-15T20:30:25.740Z,80.51
2019-05-15T20:32:54.484Z,80.58
2019-05-15T20:35:23.243Z,80.75
2019-05-15T20:37:52.301Z,80.96
2019-05-15T20:40:21.132Z,80.83
2019-05-15T20:42:49.950Z,80.91
2019-05-15T20:45:18.786Z,80.90
2019-05-15T20:47:47.539Z,80.84
2019-05-15T20:50:19.454Z,80.88
2019-05-15T20:52:49.033Z,80.91
2019-05-15T20:55:18.118Z,80.88
2019-05-15T20:57:50.270Z,80.99
2019-05-15T21:00:19.187Z,80.97
2019-05-15T21:02:48.735Z,81.07
2019-05-15T21:05:18.698Z,80.87
2019-05-15T21:07:48.603Z,80.83
2019-05-15T21:10:21.251Z,80.97
2019-05-15T21:12:48.977Z,81.02
2019-05-15T21:15:21.524Z,81.19
2019-05-15T21:17:57.740Z,81.08
2019-05-15T21:20:20.410Z,80.96
2019-05-15T21:22:50.291Z,81.05
2019-05-15T21:25:19.801Z,81.13
2019-05-15T21:27:49.160Z,81.25
2019-05-15T21:30:19.717Z,81.51
2019-05-15T21:32:49.270Z,81.20
2019-05-15T21:35:19.540Z,81.09
2019-05-15T21:37:48.984Z,80.99
2019-05-15T21:40:18.046Z,81.07
2019-05-15T21:42:49.212Z,81.21
2019-05-15T21:45:18.444Z,81.06
2019-05-15T21:47:47.418Z,81.00
2019-05-15T21:50:19.337Z,81.13
2019-05-15T21:52:49.429Z,81.36
2019-05-15T21:55:18.934Z,81.26
2019-05-15T21:57:47.833Z,81.14
2019-05-15T22:00:19.538Z,81.14
2019-05-15T22:02:49.407Z,81.24
2019-05-15T22:05:19.075Z,81.16
2019-05-15T22:07:51.069Z,81.10
2019-05-15T22:10:19.631Z,80.97
2019-05-15T22:12:48.519Z,80.93
2019-05-15T22:15:19.039Z,81.21
2019-05-15T22:17:49.409Z,81.13
2019-05-15T22:20:18.995Z,80.98
2019-05-15T22:22:50.446Z,80.84
2019-05-15T22:25:19.288Z,80.99
2019-05-15T22:27:48.628Z,80.82
2019-05-15T22:30:18.594Z,80.85
2019-05-15T22:32:49.404Z,81.05
2019-05-15T22:35:18.926Z,81.26
2019-05-15T22:37:49.380Z,81.53
2019-05-15T22:40:18.620Z,81.63
2019-05-15T22:42:48.689Z,81.36
2019-05-15T22:45:18.981Z,81.06
2019-05-15T22:47:48.342Z,81.11
2019-05-15T22:50:19.119Z,81.49
2019-05-15T22:52:49.208Z,81.73
2019-05-15T22:55:18.544Z,81.91
2019-05-15T22:57:48.073Z,81.38
2019-05-15T23:00:18.694Z,81.10
2019-05-15T23:02:48.828Z,80.82
2019-05-15T23:05:27.984Z,80.99
2019-05-15T23:07:48.458Z,80.70
2019-05-15T23:10:17.284Z,80.59
2019-05-15T23:12:46.044Z,80.74
2019-05-15T23:15:15.110Z,81.03
2019-05-15T23:17:43.884Z,80.91
2019-05-15T23:20:13.099Z,81.04
2019-05-15T23:22:41.893Z,81.19
2019-05-15T23:25:10.864Z,81.24
2019-05-15T23:27:39.687Z,81.04
2019-05-15T23:30:09.137Z,81.09
2019-05-15T23:32:39.028Z,81.16
2019-05-15T23:35:09.118Z,81.40
2019-05-15T23:37:39.142Z,81.32
2019-05-15T23:40:09.148Z,81.45
2019-05-15T23:42:38.946Z,81.42
2019-05-15T23:45:09.474Z,81.55
2019-05-15T23:47:38.608Z,81.72
2019-05-15T23:50:07.655Z,81.81
2019-05-15T23:52:38.585Z,82.23
2019-05-15T23:55:08.747Z,82.63
2019-05-15T23:57:39.323Z,82.63
